Latest Weather Observations for St Kilda Harbour RMYS

IDV60801

Issued at 4:42 am EDT Tuesday 19 October 2021 (issued every 10 minutes, with the page automatically refreshed every 10 minutes)

About weather observations | Map of weather stations | Latest weather observations for VIC | Other Formats
Station Details ID: 086220 Name: ST KILDA HARBOUR - RMYS Lat: -37.86 Lon: 144.96 Height: 6.4 m
Data from the previous 72 hours. | See also: Recent months at St Kilda Harbour RMYS
Date/Time
EDT
Temp
°C
App
Temp
°C
Dew
Point
°C
Rel
Hum
%
Delta-T
°C
Wind Press
QNH
hPa
Press
MSL
hPa
Rain since
9am
mm
Dir  Spd
km/h
Gust
km/h
Spd
kts
Gust
kts
19/04:30am - - - - - SW 19 26 10 14 - - -
19/04:00am - - - - - WSW 26 32 14 17 - - -
19/03:30am - - - - - WSW 28 32 15 17 - - -
19/03:00am - - - - - WSW 28 32 15 17 - - -
19/02:30am - - - - - WSW 26 30 14 16 - - -
19/02:00am - - - - - WSW 28 32 15 17 - - -
19/01:30am - - - - - WSW 28 33 15 18 - - -
19/01:00am - - - - - WSW 22 26 12 14 - - -
19/12:30am - - - - - SW 28 32 15 17 - - -
19/12:00am - - - - - SSW 26 30 14 16 - - -
 
Date/Time
EDT
Temp
°C
App
Temp
°C
Dew
Point
°C
Rel
Hum
%
Delta-T
°C
Wind Press
QNH
hPa
Press
MSL
hPa
Rain since
9am
mm
Dir  Spd
km/h
Gust
km/h
Spd
kts
Gust
kts
18/11:30pm - - - - - SW 26 32 14 17 - - -
18/11:00pm - - - - - SSW 28 33 15 18 - - -
18/10:30pm - - - - - SSW 30 35 16 19 - - -
18/10:00pm - - - - - SSW 35 39 19 21 - - -
18/09:30pm - - - - - SSW 32 37 17 20 - - -
18/09:00pm - - - - - SSW 28 43 15 23 - - -
18/08:30pm - - - - - SSW 22 28 12 15 - - -
18/08:00pm - - - - - SSW 30 33 16 18 - - -
18/07:30pm - - - - - SSW 32 37 17 20 - - -
18/07:00pm - - - - - SSW 32 37 17 20 - - -
18/06:30pm - - - - - S 30 33 16 18 - - -
18/06:00pm - - - - - S 24 28 13 15 - - -
18/05:30pm - - - - - S 28 32 15 17 - - -
18/05:00pm - - - - - S 28 32 15 17 - - -
18/04:30pm - - - - - S 26 30 14 16 - - -
18/04:00pm - - - - - S 32 39 17 21 - - -
18/03:30pm - - - - - SSW 15 22 8 12 - - -
18/03:00pm - - - - - SSW 17 19 9 10 - - -
18/02:30pm - - - - - SSW 22 26 12 14 - - -
18/02:00pm - - - - - SSW 24 28 13 15 - - -
18/01:30pm - - - - - SSW 17 20 9 11 - - -
18/01:00pm - - - - - S 13 17 7 9 - - -
18/12:30pm - - - - - SSW 9 11 5 6 - - -
18/12:00pm - - - - - SSW 13 15 7 8 - - -
18/11:30am - - - - - SW 15 19 8 10 - - -
18/11:00am - - - - - SW 13 17 7 9 - - -
18/10:30am - - - - - SSW 6 9 3 5 - - -
18/10:00am - - - - - SW 17 20 9 11 - - -
18/09:30am - - - - - SW 22 26 12 14 - - -
18/09:00am - - - - - WSW 19 26 10 14 - - -
18/08:30am - - - - - NW 26 32 14 17 - - -
18/08:00am - - - - - WNW 26 33 14 18 - - -
18/07:30am - - - - - WNW 24 30 13 16 - - -
18/07:00am - - - - - NW 17 20 9 11 - - -
18/06:30am - - - - - NW 13 20 7 11 - - -
18/06:00am - - - - - SE 7 13 4 7 - - -
18/05:30am - - - - - SE 2 4 1 2 - - -
18/05:00am - - - - - S 2 6 1 3 - - -
18/04:30am - - - - - ENE 2 4 1 2 - - -
18/04:00am - - - - - NNE 4 7 2 4 - - -
18/03:30am - - - - - E 4 6 2 3 - - -
18/03:00am - - - - - ENE 4 6 2 3 - - -
18/02:30am - - - - - N 9 17 5 9 - - -
18/02:00am - - - - - N 6 11 3 6 - - -
18/01:30am - - - - - NNE 4 7 2 4 - - -
18/01:00am - - - - - NNE 4 4 2 2 - - -
18/12:30am - - - - - N 4 4 2 2 - - -
18/12:00am - - - - - NNE 2 2 1 1 - - -
 
Date/Time
EDT
Temp
°C
App
Temp
°C
Dew
Point
°C
Rel
Hum
%
Delta-T
°C
Wind Press
QNH
hPa
Press
MSL
hPa
Rain since
9am
mm
Dir  Spd
km/h
Gust
km/h
Spd
kts
Gust
kts
17/11:30pm - - - - - E 4 6 2 3 - - -
17/11:00pm - - - - - E 6 9 3 5 - - -
17/10:30pm - - - - - ENE 6 6 3 3 - - -
17/10:00pm - - - - - ESE 6 6 3 3 - - -
17/09:30pm - - - - - ESE 6 9 3 5 - - -
17/09:00pm - - - - - SE 7 9 4 5 - - -
17/08:30pm - - - - - SE 11 15 6 8 - - -
17/08:00pm - - - - - SSE 17 19 9 10 - - -
17/07:30pm - - - - - SSE 15 19 8 10 - - -
17/07:00pm - - - - - S 15 17 8 9 - - -
17/06:30pm - - - - - S 11 13 6 7 - - -
17/06:00pm - - - - - SSE 15 20 8 11 - - -
17/05:30pm - - - - - S 17 20 9 11 - - -
17/05:00pm - - - - - SSE 17 20 9 11 - - -
17/04:30pm - - - - - SSE 17 20 9 11 - - -
17/04:00pm - - - - - S 20 22 11 12 - - -
17/03:30pm - - - - - S 17 20 9 11 - - -
17/03:00pm - - - - - S 17 24 9 13 - - -
17/02:30pm - - - - - S 13 20 7 11 - - -
17/02:00pm - - - - - SSW 13 15 7 8 - - -
17/01:30pm - - - - - S 9 13 5 7 - - -
17/01:00pm - - - - - SSW 9 11 5 6 - - -
17/12:30pm - - - - - W 11 17 6 9 - - -
17/12:00pm - - - - - WNW 11 13 6 7 - - -
17/11:30am - - - - - W 7 13 4 7 - - -
17/11:00am - - - - - SW 4 6 2 3 - - -
17/10:30am - - - - - WSW 4 6 2 3 - - -
17/10:00am - - - - - SW 4 7 2 4 - - -
17/09:30am - - - - - WNW 6 7 3 4 - - -
17/09:00am - - - - - WNW 11 15 6 8 - - -
17/08:30am - - - - - W 19 22 10 12 - - -
17/08:00am - - - - - W 19 22 10 12 - - -
17/07:30am - - - - - W 20 24 11 13 - - -
17/07:00am - - - - - W 22 26 12 14 - - -
17/06:30am - - - - - W 22 28 12 15 - - -
17/06:00am - - - - - W 19 22 10 12 - - -
17/05:30am - - - - - WNW 15 20 8 11 - - -
17/05:00am - - - - - WNW 19 22 10 12 - - -
17/04:30am - - - - - W 13 19 7 10 - - -
17/04:00am - - - - - W 15 19 8 10 - - -
17/03:30am - - - - - W 19 20 10 11 - - -
17/03:00am - - - - - W 24 30 13 16 - - -
17/02:30am - - - - - W 19 20 10 11 - - -
17/02:00am - - - - - W 22 28 12 15 - - -
17/01:30am - - - - - W 26 32 14 17 - - -
17/01:00am - - - - - WSW 28 32 15 17 - - -
17/12:30am - - - - - WSW 26 32 14 17 - - -
17/12:00am - - - - - WSW 24 30 13 16 - - -
 
Date/Time
EDT
Temp
°C
App
Temp
°C
Dew
Point
°C
Rel
Hum
%
Delta-T
°C
Wind Press
QNH
hPa
Press
MSL
hPa
Rain since
9am
mm
Dir  Spd
km/h
Gust
km/h
Spd
kts
Gust
kts
16/11:30pm - - - - - WSW 30 33 16 18 - - -
16/11:00pm - - - - - WSW 32 35 17 19 - - -
16/10:30pm - - - - - WSW 28 33 15 18 - - -
16/10:00pm - - - - - SSW 28 33 15 18 - - -
16/09:30pm - - - - - SW 30 33 16 18 - - -
16/09:00pm - - - - - SSW 30 33 16 18 - - -
16/08:30pm - - - - - SSW 33 39 18 21 - - -
16/08:00pm - - - - - SSW 35 41 19 22 - - -
16/07:30pm - - - - - SSW 37 41 20 22 - - -
16/07:00pm - - - - - SSW 37 44 20 24 - - -
16/06:30pm - - - - - SSW 37 43 20 23 - - -
16/06:00pm - - - - - SSW 39 46 21 25 - - -
16/05:30pm - - - - - SSW 39 46 21 25 - - -
16/05:00pm - - - - - SSW 39 46 21 25 - - -
16/04:30pm - - - - - SSW 37 44 20 24 - - -
16/04:00pm - - - - - SSW 33 41 18 22 - - -
16/03:30pm - - - - - SSW 35 41 19 22 - - -
16/03:00pm - - - - - SSW 37 43 20 23 - - -
16/02:30pm - - - - - SW 32 39 17 21 - - -
16/02:00pm - - - - - SW 32 37 17 20 - - -
16/01:30pm - - - - - SW 41 50 22 27 - - -
16/01:00pm - - - - - SW 37 44 20 24 - - -
16/12:30pm - - - - - SW 37 44 20 24 - - -
16/12:00pm - - - - - SW 43 50 23 27 - - -
16/11:30am - - - - - SW 41 50 22 27 - - -
16/11:00am - - - - - SW 46 57 25 31 - - -
16/10:30am - - - - - SSW 43 52 23 28 - - -
16/10:27am - - - - - SW 43 52 23 28 - - -
16/10:00am - - - - - WSW 41 54 22 29 - - -
16/09:30am - - - - - SW 35 54 19 29 - - -
16/09:23am - - - - - WSW 32 54 17 29 - - -
16/09:00am - - - - - WSW 33 50 18 27 - - -
16/08:30am - - - - - SW 48 56 26 30 - - -
16/08:00am - - - - - SW 48 59 26 32 - - -
16/07:30am - - - - - SW 52 61 28 33 - - -
16/07:00am - - - - - SW 48 57 26 31 - - -
16/06:30am - - - - - SW 48 56 26 30 - - -
16/06:00am - - - - - SW 59 76 32 41 - - -
16/05:44am - - - - - SW 46 67 25 36 - - -
16/05:30am - - - - - SSW 54 65 29 35 - - -
16/05:00am - - - - - SW 56 67 30 36 - - -

Other formats

Comma delimited format used in spreadsheet applications
http://www.bom.gov.au/fwo/IDV60801/IDV60801.95864.axf

JavaScript Object Notation format (JSON) in row-major order
http://www.bom.gov.au/fwo/IDV60801/IDV60801.95864.json

Data quality

Most of these data are generated automatically and are frequently updated. Quality checks on data are not normally performed. It is possible for incorrect values to appear. Refer to information at About Latest Weather Observations and please check the disclaimer before using these data.